Alta Loma, California
Current Conditions -  °F | °C
As of 8:53 PM on Wednesday 22 Oct 2014 (Local Time) from KONT Reporting Station
Broken Clouds Broken Clouds  
Wind Chill: 22°   Ceiling: 25000
Heat Index: 22°   Visibility: 10mi
Dew Point: 14°   Wind: 5mph
Humidity: 61%   Direction: 250°WSW
Pressure: 29.96"   Gusts: NA
Location:  34.12°N, 117.6°W
Report Text: KONT 230353Z 25004KT 10SM BKN250 22/14 A2996 RMK AO2 SLP135 T02220144
Loading
Personal Weather Stations






























Interactive Weather Map
Tropical Storm Tracking
New forecast layout! Learn more

10-Day Weather Forecast

Advertisements
Track Severe Weather on mobile